Latest Coastal Weather Observations for Troughton Island

IDD60701

Issued at 7:11 am CST Monday 25 May 2015 (issued every 10 minutes, with the page automatically refreshed every 10 minutes)

About coastal observations | Map of coastal stations | Coastal observations for NT | Marine services | Other Formats
Station Details ID: 001007 Name: TROUGHTON ISLAND Lat: -13.75 Lon: 126.15 Height: 6.0 m
Data from the previous 72 hours. | See also: Recent months at Troughton Island
Date/Time
CST
Temp

°C
Wind Pressure Rain
since 9am
mm
Weather Cloud Vis
km
Sea
Height
m
Swell
Dir
 
Speed
knots
Gust
knots
hPa Trend Height
m
Period
s
Dir
25/07:00am 25.3 ESE 12 14 1015.8 - 0.0 - - - - - - -
25/06:30am 25.0 ESE 11 13 1015.3 - 0.0 - - - - - - -
25/06:00am 24.6 SE 11 12 1015.1 - 0.0 - - - - - - -
25/05:30am 25.0 ESE 10 12 1015.1 - 0.0 - - - - - - -
25/05:00am 26.4 E 11 13 1015.1 - 0.0 - - - - - - -
25/04:30am 26.9 E 11 13 1014.9 - 0.0 - - - - - - -
25/04:00am 26.9 E 11 13 1015.1 - 0.0 - - - - - - -
25/03:30am 26.9 E 12 15 1015.0 - 0.0 - - - - - - -
25/03:00am 26.8 ENE 13 16 1015.4 - 0.0 - - - - - - -
25/02:30am 27.1 E 13 15 1015.5 - 0.0 - - - - - - -
25/02:00am 26.8 ENE 12 15 1015.7 - 0.0 - - - - - - -
25/01:30am 26.8 ENE 13 16 1015.6 - 0.0 - - - - - - -
25/01:00am 26.9 ENE 14 16 1015.8 - 0.0 - - - - - - -
25/12:30am 26.5 ENE 13 16 1016.1 - 0.0 - - - - - - -
25/12:00am 26.6 ENE 14 17 1016.3 - 0.0 - - - - - - -
 
Date/Time
CST
Temp

°C
Wind Pressure Rain
since 9am
mm
Weather Cloud Vis
km
Sea
Height
m
Swell
Dir
 
Speed
knots
Gust
knots
hPa Trend Height
m
Period
s
Dir
24/11:30pm 26.5 ENE 14 17 1016.3 - 0.0 - - - - - - -
24/11:00pm 26.6 ENE 15 18 1016.3 - 0.0 - - - - - - -
24/10:30pm 26.5 ENE 16 18 1016.1 - 0.0 - - - - - - -
24/10:00pm 26.3 ENE 15 18 1016.1 - 0.0 - - - - - - -
24/09:30pm 26.3 ENE 15 19 1016.0 - 0.0 - - - - - - -
24/09:00pm 26.3 ENE 17 20 1015.7 - 0.0 - - - - - - -
24/08:30pm 26.3 ENE 17 20 1015.1 - 0.0 - - - - - - -
24/08:00pm 26.2 ENE 17 21 1014.9 - 0.0 - - - - - - -
24/07:30pm 26.1 ENE 16 20 1014.5 - 0.0 - - - - - - -
24/07:00pm 26.2 ENE 17 22 1014.3 - 0.0 - - - - - - -
24/06:30pm 26.4 ENE 18 22 1013.9 - 0.0 - - - - - - -
24/06:00pm 26.7 ENE 17 22 1013.7 - 0.0 - - - - - - -
24/05:30pm 27.1 ENE 18 21 1013.6 - 0.0 - - - - - - -
24/05:00pm 27.2 ENE 18 23 1013.4 - 0.0 - - - - - - -
24/04:30pm 27.4 ENE 19 22 1013.3 - 0.0 - - - - - - -
24/04:00pm 28.1 ENE 19 22 1013.4 - 0.0 - - - - - - -
24/03:30pm 28.7 ENE 17 22 1013.4 - 0.0 - - - - - - -
24/03:00pm 29.2 ENE 17 21 1013.5 - 0.0 - - - - - - -
24/02:30pm 29.2 ENE 16 19 1013.6 - 0.0 - - - - - - -
24/02:00pm 29.1 E 15 18 1014.0 - 0.0 - - - - - - -
24/01:30pm 29.3 E 15 18 1014.1 - 0.0 - - - - - - -
24/01:00pm 29.1 E 14 17 1014.7 - 0.0 - - - - - - -
24/12:30pm 28.8 E 15 18 1015.1 - 0.0 - - - - - - -
24/12:00pm 28.4 E 16 19 1015.5 - 0.0 - - - - - - -
24/11:30am 28.1 E 18 21 1015.7 - 0.0 - - - - - - -
24/11:00am 27.6 E 19 23 1015.8 - 0.0 - - - - - - -
24/10:30am 27.3 E 18 23 1016.0 - 0.0 - - - - - - -
24/10:00am 27.1 E 20 24 1016.3 - 0.0 - - - - - - -
24/09:30am 26.8 E 20 25 1016.2 - 0.0 - - - - - - -
24/09:00am 26.5 E 20 25 1016.0 - 0.0 - - - - - - -
24/08:30am 26.3 E 19 24 1015.9 - 0.0 - - - - - - -
24/08:00am 26.0 E 18 22 1015.6 - 0.0 - - - - - - -
24/07:30am 25.8 E 17 21 1015.2 - 0.0 - - - - - - -
24/07:00am 26.0 E 16 20 1015.0 - 0.0 - - - - - - -
24/06:30am 26.1 E 15 18 1014.7 - 0.0 - - - - - - -
24/06:00am 26.2 E 15 18 1014.4 - 0.0 - - - - - - -
24/05:30am 26.2 ESE 14 16 1014.1 - 0.0 - - - - - - -
24/05:00am 26.5 E 14 17 1014.0 - 0.0 - - - - - - -
24/04:30am 26.1 E 12 14 1014.0 - 0.0 - - - - - - -
24/04:00am 26.1 E 13 14 1014.1 - 0.0 - - - - - - -
24/03:30am 26.5 E 13 14 1014.3 - 0.0 - - - - - - -
24/03:00am 26.4 E 13 15 1014.4 - 0.0 - - - - - - -
24/02:30am 26.8 E 13 15 1014.6 - 0.0 - - - - - - -
24/02:00am 27.0 E 12 14 1014.8 - 0.0 - - - - - - -
24/01:30am 27.0 E 12 14 1014.8 - 0.0 - - - - - - -
24/01:00am 26.9 ENE 11 13 1015.0 - 0.0 - - - - - - -
24/12:30am 26.9 ENE 12 14 1015.0 - 0.0 - - - - - - -
24/12:00am 26.9 ENE 12 14 1015.2 - 0.0 - - - - - - -
 
Date/Time
CST
Temp

°C
Wind Pressure Rain
since 9am
mm
Weather Cloud Vis
km
Sea
Height
m
Swell
Dir
 
Speed
knots
Gust
knots
hPa Trend Height
m
Period
s
Dir
23/11:30pm 26.9 ENE 12 15 1015.0 - 0.0 - - - - - - -
23/11:00pm 26.9 ENE 12 15 1015.0 - 0.0 - - - - - - -
23/10:30pm 26.9 ENE 13 16 1014.8 - 0.0 - - - - - - -
23/10:00pm 26.9 ENE 13 16 1015.1 - 0.0 - - - - - - -
23/09:30pm 27.0 ENE 15 19 1014.9 - 0.0 - - - - - - -
23/09:00pm 26.9 ENE 16 21 1014.8 - 0.0 - - - - - - -
23/08:30pm 26.9 ENE 17 19 1014.4 - 0.0 - - - - - - -
23/08:00pm 26.7 ENE 16 19 1014.4 - 0.0 - - - - - - -
23/07:30pm 26.4 ENE 15 18 1014.2 - 0.0 - - - - - - -
23/07:00pm 26.5 ENE 18 21 1013.8 - 0.0 - - - - - - -
23/06:30pm 26.7 ENE 18 21 1013.5 - 0.0 - - - - - - -
23/06:00pm 27.0 ENE 18 24 1013.5 - 0.0 - - - - - - -
23/05:30pm 27.4 ENE 18 21 1013.4 - 0.0 - - - - - - -
23/05:00pm 27.8 ENE 19 23 1013.4 - 0.0 - - - - - - -
23/04:30pm 28.2 ENE 18 23 1013.4 - 0.0 - - - - - - -
23/04:00pm 28.6 ENE 18 21 1013.6 - 0.0 - - - - - - -
23/03:30pm 28.9 ENE 17 21 1013.8 - 0.0 - - - - - - -
23/03:00pm 28.8 ENE 18 21 1013.9 - 0.0 - - - - - - -
23/02:30pm 29.0 ENE 18 21 1014.3 - 0.0 - - - - - - -
23/02:00pm 28.8 E 17 21 1014.8 - 0.0 - - - - - - -
23/01:30pm 28.9 E 17 20 1015.2 - 0.0 - - - - - - -
23/01:00pm 29.2 E 17 21 1015.9 - 0.0 - - - - - - -
23/12:30pm 29.2 E 18 22 1016.1 - 0.0 - - - - - - -
23/12:00pm 29.2 E 17 20 1016.4 - 0.0 - - - - - - -
23/11:30am 29.2 E 18 21 1016.6 - 0.0 - - - - - - -
23/11:00am 29.2 E 18 23 1016.8 - 0.0 - - - - - - -
23/10:30am 27.8 E 19 23 1016.9 - 0.0 - - - - - - -
23/10:00am 27.9 ESE 19 23 1017.1 - 0.0 - - - - - - -
23/09:30am 27.6 ESE 19 24 1017.1 - 0.0 - - - - - - -
23/09:00am 27.3 ESE 19 22 1016.9 - 0.0 - - - - - - -
23/08:30am 27.0 ESE 18 23 1016.6 - 0.0 - - - - - - -
23/08:00am 26.7 ESE 17 20 1016.5 - 0.0 - - - - - - -
23/07:30am 26.7 ESE 15 18 1016.0 - 0.0 - - - - - - -
23/07:00am 26.4 E 12 15 1015.7 - 0.0 - - - - - - -
23/06:30am 25.5 ESE 8 10 1015.8 - 0.0 - - - - - - -
23/06:00am 25.7 ESE 9 10 1015.7 - 0.0 - - - - - - -
23/05:30am 25.7 ESE 8 9 1015.5 - 0.0 - - - - - - -
23/05:00am 25.7 SE 8 9 1015.3 - 0.0 - - - - - - -
23/04:30am 26.2 ESE 9 11 1015.0 - 0.0 - - - - - - -
23/04:00am 26.7 E 8 10 1015.1 - 0.0 - - - - - - -
23/03:30am 27.0 ENE 9 10 1015.0 - 0.0 - - - - - - -
23/03:00am 27.2 E 9 11 1015.2 - 0.0 - - - - - - -
23/02:30am 27.4 E 10 11 1015.3 - 0.0 - - - - - - -
23/02:00am 26.9 ENE 9 10 1015.4 - 0.0 - - - - - - -
23/01:30am 27.0 ENE 9 11 1015.5 - 0.0 - - - - - - -
23/01:00am 27.1 E 10 11 1015.7 - 0.0 - - - - - - -
23/12:30am 27.1 E 10 12 1015.7 - 0.0 - - - - - - -
23/12:00am 27.1 ENE 10 12 1015.9 - 0.0 - - - - - - -
 
Date/Time
CST
Temp

°C
Wind Pressure Rain
since 9am
mm
Weather Cloud Vis
km
Sea
Height
m
Swell
Dir
 
Speed
knots
Gust
knots
hPa Trend Height
m
Period
s
Dir
22/11:30pm 27.0 ENE 11 13 1015.9 - 0.0 - - - - - - -
22/11:00pm 26.9 ENE 12 14 1016.0 - 0.0 - - - - - - -
22/10:30pm 27.0 ENE 12 14 1016.0 - 0.0 - - - - - - -
22/10:00pm 27.0 ENE 11 13 1015.9 - 0.0 - - - - - - -
22/09:30pm 27.1 ENE 10 12 1015.8 - 0.0 - - - - - - -
22/09:00pm 27.2 ENE 11 13 1015.7 - 0.0 - - - - - - -
22/08:30pm 27.4 NE 10 13 1015.4 - 0.0 - - - - - - -
22/08:00pm 27.6 NE 11 15 1015.3 - 0.0 - - - - - - -
22/07:30pm 27.8 NE 9 11 1014.8 - 0.0 - - - - - - -
22/07:00pm 27.9 NE 9 11 1014.6 - 0.0 - - - - - - -
22/06:30pm 28.2 NNE 6 7 1014.5 - 0.0 - - - - - - -
22/06:00pm 29.0 NNE 6 7 1014.1 - 0.0 - - - - - - -
22/05:30pm 28.6 N 6 8 1013.9 - 0.0 - - - - - - -
22/05:00pm 29.4 N 8 10 1013.8 - 0.0 - - - - - - -
22/04:30pm 29.3 N 7 8 1013.7 - 0.0 - - - - - - -
22/04:00pm 29.2 N 7 9 1013.9 - 0.0 - - - - - - -
22/03:30pm 30.1 N 6 8 1014.2 - 0.0 - - - - - - -
22/03:00pm 30.5 NE 6 7 1014.3 - 0.0 - - - - - - -
22/02:30pm 30.5 ENE 4 6 1014.6 - 0.0 - - - - - - -
22/02:00pm 30.3 ENE 5 6 1015.0 - 0.0 - - - - - - -
22/01:30pm 29.8 ESE 6 7 1015.2 - 0.0 - - - - - - -
22/01:00pm 29.6 E 6 7 1015.6 - 0.0 - - - - - - -
22/12:30pm 29.9 E 6 7 1015.9 - 0.0 - - - - - - -
22/12:00pm 29.6 E 6 7 1016.3 - 0.0 - - - - - - -
22/11:30am 28.9 E 6 7 1016.5 - 0.0 - - - - - - -
22/11:00am 28.9 ESE 6 7 1017.0 - 0.0 - - - - - - -
22/10:30am 28.9 ESE 8 10 1017.1 - 0.0 - - - - - - -
22/10:00am 28.2 ESE 9 11 1017.0 - 0.0 - - - - - - -
22/09:30am 27.4 ESE 9 12 1016.7 - 0.0 - - - - - - -
22/09:00am 26.7 SE 10 13 1016.5 - 0.0 - - - - - - -

Other Formats:

Comma delimited format used in spreadsheet applications
http://www.bom.gov.au/fwo/IDD60701/IDD60701.94102.axf

JavaScript Object Notation format (JSON) in row-major order
http://www.bom.gov.au/fwo/IDD60701/IDD60701.94102.json